Terminal Aerodrome Forecast
Issued by NWS Twin Cities, MN

Home | Current Version | Previous Version | Graphics & Text | Print | Product List | Glossary On
Versions: 1 2 3 4 5 6 7 8 9 10 11 12 13 14 15 16 17 18 19 20 21
000
FTUS43 KMPX 011400 AAA
TAFSTC
TAF AMD
KSTC 011431Z 0115/0212 14010KT P6SM SCT008 OVC012
      TEMPO 0115/0116 3SM -RA BR OVC008
     FM011700 16009KT P6SM OVC015
     FM012200 18006KT P6SM SCT020 BKN100
     FM020400 22004KT P6SM BKN100
     FM020800 30004KT 6SM BR SCT010 BKN070=

USA.gov is the U.S. government's official web portal to all federal, state and local government web resources and services.